Bladensburg, Iowa
Current Conditions -  °F | °C
As of 10:35 PM on Tuesday 21 Oct 2014 (Local Time) from KOOA Reporting Station
Clear Clear  
Wind Chill: 43°   Ceiling: Unl
Heat Index: 47°   Visibility: 10mi
Dew Point: 38°   Wind: 9mph
Humidity: 71%   Direction: 110°ESE
Pressure: 30.2"   Gusts: NA
Location:  41.0803°N, 92.3054°W
Report Text: KOOA 220335Z AUTO 11008KT 10SM CLR 09/04 A3020 RMK AO2 T00850036
Loading
Personal Weather Stations






























Interactive Weather Map
Tropical Storm Tracking
New forecast layout! Learn more

10-Day Weather Forecast

Advertisements
Track Severe Weather on mobile